createdAt,value
2023-03-28T00:01:07.971Z,1.32
2023-03-28T00:04:19.993Z,0.88
2023-03-28T00:07:30.079Z,1.75
2023-03-28T00:10:39.597Z,1.25
2023-03-28T00:13:50.409Z,1.85
2023-03-28T00:17:04.391Z,1.30
2023-03-28T00:20:18.152Z,1.60
2023-03-28T00:23:31.668Z,1.50
2023-03-28T00:26:42.075Z,1.15
2023-03-28T00:29:54.779Z,1.17
2023-03-28T00:33:07.922Z,1.45
2023-03-28T00:36:20.863Z,1.72
2023-03-28T00:39:32.258Z,1.67
2023-03-28T00:42:46.768Z,1.77
2023-03-28T00:46:08.570Z,2.33
2023-03-28T00:49:14.014Z,1.82
2023-03-28T00:52:26.533Z,1.47
2023-03-28T00:55:39.187Z,1.37
2023-03-28T00:58:49.752Z,1.50
2023-03-28T01:02:03.330Z,1.42
2023-03-28T01:05:13.797Z,1.52
2023-03-28T01:08:24.947Z,1.55
2023-03-28T01:11:36.575Z,1.75
2023-03-28T01:14:48.504Z,0.95
2023-03-28T01:17:57.720Z,1.45
2023-03-28T01:21:34.351Z,0.83
2023-03-28T01:25:47.895Z,0.93
2023-03-28T01:33:10.207Z,0.93
2023-03-28T01:37:08.070Z,1.32
2023-03-28T01:40:27.058Z,1.70
2023-03-28T01:43:38.980Z,1.10
2023-03-28T01:46:52.202Z,1.45
2023-03-28T01:50:05.902Z,1.75
2023-03-28T01:53:17.279Z,1.37
2023-03-28T01:56:27.426Z,1.87
2023-03-28T01:59:41.713Z,1.55
2023-03-28T02:02:51.609Z,0.88
2023-03-28T02:06:03.486Z,0.70
2023-03-28T02:09:12.787Z,1.55
2023-03-28T02:12:27.873Z,1.05
2023-03-28T02:15:40.953Z,1.45
2023-03-28T02:18:56.980Z,1.25
2023-03-28T02:22:10.040Z,1.67
2023-03-28T02:25:21.792Z,1.30
2023-03-28T02:28:33.705Z,0.95
2023-03-28T02:31:43.875Z,1.12
2023-03-28T02:34:51.615Z,1.07
2023-03-28T02:38:06.145Z,0.88
2023-03-28T02:41:17.992Z,1.52
2023-03-28T02:44:37.436Z,1.22
2023-03-28T02:47:51.723Z,1.47
2023-03-28T02:51:04.827Z,1.10
2023-03-28T02:54:27.748Z,0.93
2023-03-28T02:57:39.990Z,0.90
2023-03-28T03:00:54.806Z,1.65
2023-03-28T03:04:05.272Z,1.25
2023-03-28T03:07:19.959Z,1.55
2023-03-28T03:10:31.103Z,0.80
2023-03-28T03:13:42.866Z,2.10
2023-03-28T03:16:57.122Z,1.98
2023-03-28T03:20:11.899Z,1.55
2023-03-28T03:23:21.835Z,1.47
2023-03-28T03:26:31.930Z,1.70
2023-03-28T03:29:41.136Z,0.75
2023-03-28T03:32:51.384Z,1.17
2023-03-28T03:36:01.774Z,1.55
2023-03-28T03:39:12.235Z,1.47
2023-03-28T03:42:21.154Z,1.17
2023-03-28T03:45:33.052Z,1.72
2023-03-28T03:48:49.630Z,1.27
2023-03-28T03:51:52.478Z,1.27
2023-03-28T03:55:03.761Z,1.35
2023-03-28T03:58:15.275Z,1.05
2023-03-28T04:01:23.710Z,1.85
2023-03-28T04:04:34.752Z,1.92
2023-03-28T04:07:43.883Z,1.65
2023-03-28T04:10:52.044Z,1.12
2023-03-28T04:14:04.512Z,1.30
2023-03-28T04:17:14.306Z,1.77
2023-03-28T04:20:23.634Z,1.05
2023-03-28T04:23:34.019Z,1.30
2023-03-28T04:26:49.672Z,1.50
2023-03-28T04:30:01.156Z,1.00
2023-03-28T04:33:12.931Z,1.40
2023-03-28T04:36:21.734Z,1.60
2023-03-28T04:39:32.495Z,1.55
2023-03-28T04:42:42.659Z,1.12
2023-03-28T04:45:53.555Z,0.95
2023-03-28T04:49:05.316Z,1.00
2023-03-28T04:52:15.343Z,0.93
2023-03-28T04:55:27.340Z,1.50
2023-03-28T04:58:38.482Z,1.15
2023-03-28T05:01:52.467Z,1.82
2023-03-28T05:05:01.684Z,1.32
2023-03-28T05:08:14.903Z,1.77
2023-03-28T05:11:28.912Z,1.35
2023-03-28T05:14:42.986Z,1.80
2023-03-28T05:17:52.831Z,1.70
2023-03-28T05:21:07.176Z,1.42
2023-03-28T05:24:17.041Z,1.52
2023-03-28T05:27:25.118Z,1.55
2023-03-28T05:30:36.267Z,1.55
2023-03-28T05:33:45.410Z,1.47
2023-03-28T05:36:57.194Z,1.82
2023-03-28T05:40:10.528Z,1.37
2023-03-28T05:43:22.146Z,1.82
2023-03-28T05:46:31.522Z,1.40
2023-03-28T05:49:41.564Z,1.27
2023-03-28T05:52:50.969Z,1.02
2023-03-28T05:56:01.763Z,1.30
2023-03-28T05:59:10.594Z,1.30
2023-03-28T06:02:20.677Z,1.45
2023-03-28T06:05:32.210Z,1.62
2023-03-28T06:08:45.082Z,1.50
2023-03-28T06:11:56.538Z,1.70
2023-03-28T06:15:06.731Z,1.20
2023-03-28T06:18:15.617Z,2.05
2023-03-28T06:21:26.898Z,1.42
2023-03-28T06:24:38.839Z,1.20
2023-03-28T06:27:50.376Z,1.02
2023-03-28T06:34:17.861Z,1.20
2023-03-28T06:37:27.949Z,1.50
2023-03-28T06:40:40.662Z,2.08
2023-03-28T06:43:52.224Z,1.30
2023-03-28T06:47:05.122Z,1.10
2023-03-28T06:50:16.930Z,1.45
2023-03-28T06:53:29.890Z,2.10
2023-03-28T06:56:42.260Z,1.22
2023-03-28T06:59:51.789Z,2.12
2023-03-28T07:03:03.625Z,1.50
2023-03-28T07:06:16.201Z,1.85
2023-03-28T07:09:27.868Z,1.63
2023-03-28T07:12:38.709Z,1.98
2023-03-28T07:15:46.118Z,1.95
2023-03-28T07:18:55.661Z,1.32
2023-03-28T07:22:06.174Z,1.82
2023-03-28T07:25:17.400Z,1.60
2023-03-28T07:28:28.362Z,2.27
2023-03-28T07:31:41.202Z,1.90
2023-03-28T07:34:52.765Z,2.40
2023-03-28T07:38:02.598Z,1.62
2023-03-28T07:41:16.280Z,1.75
2023-03-28T07:44:27.066Z,1.30
2023-03-28T07:47:38.294Z,1.72
2023-03-28T07:50:51.005Z,1.65
2023-03-28T07:54:02.392Z,1.25
2023-03-28T07:57:14.289Z,1.82
2023-03-28T08:00:29.234Z,1.55
2023-03-28T08:03:40.408Z,1.77
2023-03-28T08:06:54.665Z,1.90
2023-03-28T08:10:05.760Z,1.90
2023-03-28T08:13:18.279Z,2.02
2023-03-28T08:16:28.418Z,1.70
2023-03-28T08:19:39.610Z,1.80
2023-03-28T08:22:51.104Z,2.00
2023-03-28T08:26:08.001Z,2.17
2023-03-28T08:29:20.387Z,2.22
2023-03-28T08:32:31.324Z,1.87
2023-03-28T08:35:40.520Z,1.92
2023-03-28T08:42:09.943Z,1.57
2023-03-28T08:45:43.302Z,1.55
2023-03-28T08:48:54.527Z,2.12
2023-03-28T08:52:03.567Z,2.47
2023-03-28T08:55:25.297Z,1.77
2023-03-28T08:58:37.958Z,1.22
2023-03-28T09:01:48.014Z,1.85
2023-03-28T09:05:08.165Z,1.60
2023-03-28T09:08:13.539Z,1.30
2023-03-28T09:11:30.943Z,1.80
2023-03-28T09:14:59.260Z,1.67
2023-03-28T09:18:27.427Z,1.40
2023-03-28T09:21:41.083Z,1.10
2023-03-28T09:24:59.073Z,1.60
2023-03-28T09:28:14.378Z,1.87
2023-03-28T09:31:26.999Z,1.20
2023-03-28T09:34:42.787Z,1.22
2023-03-28T09:37:55.777Z,1.10
2023-03-28T09:41:08.771Z,1.72
2023-03-28T09:44:22.297Z,1.90
2023-03-28T09:50:46.130Z,1.63
2023-03-28T09:53:58.429Z,1.40
2023-03-28T09:57:09.704Z,1.75
2023-03-28T10:00:25.298Z,0.90
2023-03-28T10:03:38.172Z,1.20
2023-03-28T10:06:50.472Z,1.30
2023-03-28T10:10:03.423Z,1.62
2023-03-28T10:16:29.226Z,1.10
2023-03-28T10:19:39.412Z,0.90
2023-03-28T10:22:50.520Z,1.15
2023-03-28T10:26:00.751Z,1.42
2023-03-28T10:32:30.880Z,1.20
2023-03-28T10:35:44.027Z,1.27
2023-03-28T10:38:55.815Z,0.80
2023-03-28T10:42:08.720Z,1.35
2023-03-28T10:45:26.427Z,1.65
2023-03-28T10:48:40.155Z,1.17
2023-03-28T10:51:50.204Z,1.45
2023-03-28T10:55:08.803Z,1.05
2023-03-28T10:58:21.710Z,1.77
2023-03-28T11:01:33.598Z,1.52
2023-03-28T11:04:55.888Z,1.02
2023-03-28T11:08:09.427Z,1.07
2023-03-28T11:11:28.587Z,1.27
2023-03-28T11:14:46.157Z,1.05
2023-03-28T11:18:01.808Z,0.78
2023-03-28T11:21:17.793Z,2.10
2023-03-28T11:24:35.327Z,1.27
2023-03-28T11:27:48.765Z,0.80
2023-03-28T11:34:09.399Z,0.70
2023-03-28T11:37:20.787Z,0.62
2023-03-28T11:40:34.226Z,0.95
2023-03-28T11:43:45.206Z,1.00
2023-03-28T11:46:59.642Z,1.25
2023-03-28T11:50:12.722Z,0.95
2023-03-28T11:53:25.669Z,0.93
2023-03-28T11:56:43.184Z,0.70
2023-03-28T11:59:55.928Z,0.98
2023-03-28T12:03:13.912Z,0.78
2023-03-28T12:06:29.238Z,0.75
2023-03-28T12:09:41.688Z,0.80
2023-03-28T12:12:57.995Z,1.00
2023-03-28T12:16:05.999Z,1.02
2023-03-28T12:19:16.278Z,0.90
2023-03-28T12:22:28.998Z,0.75
2023-03-28T12:25:41.584Z,0.75
2023-03-28T12:28:50.294Z,1.00
2023-03-28T12:32:00.856Z,0.88
2023-03-28T12:35:16.274Z,1.00
2023-03-28T12:38:31.895Z,1.02
2023-03-28T12:41:41.626Z,1.02
2023-03-28T12:44:53.880Z,1.95
2023-03-28T12:48:03.787Z,8.43
2023-03-28T12:51:17.363Z,7.78
2023-03-28T12:54:31.603Z,5.17
2023-03-28T12:57:51.791Z,5.90
2023-03-28T13:01:12.109Z,7.08
2023-03-28T13:04:28.258Z,6.60
2023-03-28T13:07:43.356Z,9.20
2023-03-28T13:11:00.802Z,7.03
2023-03-28T13:14:16.387Z,6.17
2023-03-28T13:17:26.514Z,5.17
2023-03-28T13:20:38.180Z,6.15
2023-03-28T13:23:54.933Z,4.90
2023-03-28T13:27:05.986Z,4.78
2023-03-28T13:30:20.722Z,4.85
2023-03-28T13:33:31.894Z,4.33
2023-03-28T13:36:42.012Z,4.15
2023-03-28T13:40:00.106Z,3.92
2023-03-28T13:43:13.117Z,3.83
2023-03-28T13:46:26.540Z,4.60
2023-03-28T13:49:43.651Z,3.47
2023-03-28T13:52:55.112Z,3.77
2023-03-28T13:56:20.193Z,2.65
2023-03-28T13:59:33.190Z,3.42
2023-03-28T14:02:46.537Z,3.72
2023-03-28T14:05:56.632Z,2.58
2023-03-28T14:09:12.812Z,3.37
2023-03-28T14:12:27.033Z,2.58
2023-03-28T14:15:40.251Z,1.98
2023-03-28T14:21:55.456Z,3.45
2023-03-28T14:25:06.885Z,2.35
2023-03-28T14:28:20.547Z,3.08
2023-03-28T14:31:39.777Z,1.65
2023-03-28T14:34:48.347Z,2.02
2023-03-28T14:37:59.261Z,2.47
2023-03-28T14:41:16.400Z,2.40
2023-03-28T14:44:27.642Z,2.55
2023-03-28T14:47:37.852Z,1.87
2023-03-28T14:50:49.223Z,2.15
2023-03-28T14:54:00.114Z,1.98
2023-03-28T14:57:10.096Z,2.25
2023-03-28T15:00:24.097Z,2.12
2023-03-28T15:03:37.511Z,2.10
2023-03-28T15:06:47.150Z,2.60
2023-03-28T15:10:14.227Z,2.25
2023-03-28T15:13:29.531Z,2.27
2023-03-28T15:16:43.088Z,2.65
2023-03-28T15:19:56.086Z,2.65
2023-03-28T15:23:05.451Z,2.05
2023-03-28T15:26:14.978Z,2.17
2023-03-28T15:29:24.353Z,2.80
2023-03-28T15:32:38.230Z,1.85
2023-03-28T15:35:51.059Z,2.77
2023-03-28T15:39:08.023Z,1.85
2023-03-28T15:46:05.102Z,1.40
2023-03-28T15:49:19.229Z,2.58
2023-03-28T15:52:31.614Z,1.70
2023-03-28T15:55:42.504Z,2.43
2023-03-28T15:58:52.884Z,1.27
2023-03-28T16:02:44.616Z,2.27
2023-03-28T16:06:01.856Z,1.82
2023-03-28T16:12:27.265Z,2.00
2023-03-28T16:15:38.153Z,1.22
2023-03-28T16:18:48.219Z,2.30
2023-03-28T16:22:01.101Z,1.90
2023-03-28T16:25:16.110Z,1.50
2023-03-28T16:28:24.909Z,2.47
2023-03-28T16:31:39.379Z,1.70
2023-03-28T16:34:50.194Z,3.00
2023-03-28T16:37:58.286Z,4.45
2023-03-28T16:41:10.376Z,3.08
2023-03-28T16:44:18.478Z,3.80
2023-03-28T16:47:28.810Z,2.77
2023-03-28T16:50:38.758Z,3.67
2023-03-28T16:53:52.357Z,3.33
2023-03-28T16:57:06.655Z,1.92
2023-03-28T17:00:21.799Z,3.65
2023-03-28T17:03:33.749Z,1.67
2023-03-28T17:06:43.498Z,2.50
2023-03-28T17:09:53.730Z,2.87
2023-03-28T17:13:04.329Z,3.15
2023-03-28T17:16:14.233Z,2.85
2023-03-28T17:19:26.441Z,1.95
2023-03-28T17:22:38.045Z,2.00
2023-03-28T17:25:54.830Z,1.85
2023-03-28T17:29:04.445Z,2.15
2023-03-28T17:32:15.043Z,1.95
2023-03-28T17:35:25.874Z,1.65
2023-03-28T17:38:38.037Z,2.20
2023-03-28T17:41:50.010Z,1.55
2023-03-28T17:45:00.615Z,2.12
2023-03-28T17:48:10.859Z,1.57
2023-03-28T17:51:20.558Z,1.30
2023-03-28T17:54:35.258Z,2.35
2023-03-28T17:57:45.360Z,2.00
2023-03-28T18:00:53.855Z,2.25
2023-03-28T18:04:04.865Z,1.62
2023-03-28T18:07:17.909Z,1.77
2023-03-28T18:10:29.507Z,1.72
2023-03-28T18:13:41.151Z,1.50
2023-03-28T18:16:54.303Z,1.50
2023-03-28T18:20:07.043Z,1.67
2023-03-28T18:23:18.995Z,1.50
2023-03-28T18:26:30.580Z,1.77
2023-03-28T18:29:39.836Z,1.52
2023-03-28T18:32:50.955Z,1.67
2023-03-28T18:36:04.070Z,1.65
2023-03-28T18:39:14.598Z,1.50
2023-03-28T18:42:23.492Z,1.82
2023-03-28T18:45:36.880Z,1.42
2023-03-28T18:48:47.046Z,2.05
2023-03-28T18:51:55.675Z,1.42
2023-03-28T18:55:07.479Z,2.22
2023-03-28T18:58:16.750Z,1.40
2023-03-28T19:01:31.007Z,1.72
2023-03-28T19:04:42.761Z,1.22
2023-03-28T19:07:53.115Z,1.37
2023-03-28T19:11:06.706Z,1.62
2023-03-28T19:14:15.407Z,1.40
2023-03-28T19:17:29.207Z,1.47
2023-03-28T19:20:41.013Z,1.42
2023-03-28T19:23:55.017Z,2.05
2023-03-28T19:27:05.977Z,1.65
2023-03-28T19:30:16.908Z,1.45
2023-03-28T19:33:27.096Z,1.25
2023-03-28T19:36:38.246Z,1.72
2023-03-28T19:39:52.542Z,1.62
2023-03-28T19:43:03.712Z,1.25
2023-03-28T19:46:17.104Z,1.17
2023-03-28T19:52:34.467Z,1.35
2023-03-28T19:55:43.386Z,1.62
2023-03-28T19:58:54.350Z,1.35
2023-03-28T20:02:04.563Z,1.40
2023-03-28T20:05:13.848Z,1.45
2023-03-28T20:08:24.518Z,1.85
2023-03-28T20:11:36.222Z,1.17
2023-03-28T20:14:45.081Z,1.20
2023-03-28T20:17:57.577Z,1.17
2023-03-28T20:21:09.209Z,1.37
2023-03-28T20:24:18.081Z,1.50
2023-03-28T20:27:27.032Z,1.50
2023-03-28T20:30:38.146Z,1.32
2023-03-28T20:33:48.840Z,1.40
2023-03-28T20:36:59.291Z,1.80
2023-03-28T20:40:12.728Z,1.60
2023-03-28T20:43:23.587Z,1.37
2023-03-28T20:46:36.071Z,1.45
2023-03-28T20:49:51.065Z,1.35
2023-03-28T20:52:58.306Z,1.67
2023-03-28T20:56:13.723Z,0.80
2023-03-28T20:59:27.762Z,1.37
2023-03-28T21:02:40.653Z,1.67
2023-03-28T21:05:50.743Z,0.90
2023-03-28T21:09:00.000Z,1.82
2023-03-28T21:12:12.492Z,1.50
2023-03-28T21:15:22.721Z,1.62
2023-03-28T21:18:32.222Z,1.20
2023-03-28T21:21:43.850Z,1.80
2023-03-28T21:24:56.184Z,1.27
2023-03-28T21:28:08.265Z,1.33
2023-03-28T21:31:20.527Z,1.30
2023-03-28T21:34:36.680Z,1.20
2023-03-28T21:37:48.997Z,1.55
2023-03-28T21:41:00.427Z,1.10
2023-03-28T21:44:11.530Z,1.62
2023-03-28T21:47:22.115Z,1.77
2023-03-28T21:50:32.415Z,1.92
2023-03-28T21:53:44.699Z,1.92
2023-03-28T21:56:53.707Z,1.22
2023-03-28T22:00:05.569Z,2.08
2023-03-28T22:03:18.182Z,1.17
2023-03-28T22:06:31.433Z,1.82
2023-03-28T22:09:41.146Z,1.22
2023-03-28T22:12:53.113Z,2.15
2023-03-28T22:16:04.987Z,1.57
2023-03-28T22:19:14.348Z,1.95
2023-03-28T22:22:27.860Z,1.25
2023-03-28T22:25:39.094Z,1.62
2023-03-28T22:28:49.134Z,1.72
2023-03-28T22:32:01.762Z,1.42
2023-03-28T22:35:13.900Z,1.98
2023-03-28T22:38:26.627Z,1.50
2023-03-28T22:41:38.066Z,2.12
2023-03-28T22:44:51.259Z,2.65
2023-03-28T22:48:03.804Z,2.60
2023-03-28T22:51:18.760Z,3.08
2023-03-28T22:54:31.712Z,3.15
2023-03-28T22:57:42.059Z,3.15
2023-03-28T23:00:54.436Z,1.72
2023-03-28T23:04:06.428Z,1.52
2023-03-28T23:07:14.397Z,1.85
2023-03-28T23:10:24.289Z,1.52
2023-03-28T23:13:33.327Z,1.52
2023-03-28T23:16:42.630Z,1.52
2023-03-28T23:19:53.386Z,1.27
2023-03-28T23:23:06.978Z,1.57
2023-03-28T23:26:16.266Z,1.40
2023-03-28T23:29:27.298Z,1.70
2023-03-28T23:32:40.071Z,1.05
2023-03-28T23:35:50.687Z,1.02
2023-03-28T23:39:03.337Z,1.45
2023-03-28T23:42:15.025Z,1.90
2023-03-28T23:45:27.817Z,1.47
2023-03-28T23:48:39.683Z,2.05
2023-03-28T23:51:53.122Z,2.27
2023-03-28T23:55:06.411Z,1.92
